createdAt,value
2018-09-06T00:00:23.486Z,82.46
2018-09-06T00:01:23.729Z,82.37
2018-09-06T00:02:23.972Z,81.70
2018-09-06T00:03:24.219Z,81.22
2018-09-06T00:04:32.092Z,81.98
2018-09-06T00:05:24.765Z,82.27
2018-09-06T00:06:25.009Z,81.89
2018-09-06T00:07:25.253Z,82.85
2018-09-06T00:08:25.496Z,82.56
2018-09-06T00:09:25.742Z,82.65
2018-09-06T00:10:25.987Z,82.08
2018-09-06T00:11:26.230Z,82.56
2018-09-06T00:12:26.475Z,82.08
2018-09-06T00:13:26.719Z,81.79
2018-09-06T00:14:26.966Z,82.27
2018-09-06T00:15:27.211Z,82.08
2018-09-06T00:16:27.452Z,82.08
2018-09-06T00:17:27.697Z,81.70
2018-09-06T00:18:27.939Z,81.89
2018-09-06T00:19:28.185Z,81.70
2018-09-06T00:20:28.428Z,81.51
2018-09-06T00:21:28.672Z,80.83
2018-09-06T00:22:28.914Z,80.60
2018-09-06T00:23:29.160Z,80.89
2018-09-06T00:24:29.404Z,80.51
2018-09-06T00:25:29.648Z,80.22
2018-09-06T00:26:29.893Z,79.55
2018-09-06T00:27:30.143Z,78.59
2018-09-06T00:28:30.385Z,78.49
2018-09-06T00:29:30.630Z,78.78
2018-09-06T00:30:30.874Z,78.88
2018-09-06T00:31:31.120Z,78.55
2018-09-06T00:32:31.363Z,78.84
2018-09-06T00:33:31.605Z,77.88
2018-09-06T00:34:31.849Z,79.03
2018-09-06T00:35:32.094Z,78.36
2018-09-06T00:36:32.337Z,77.88
2018-09-06T00:37:32.584Z,78.17
2018-09-06T00:38:32.825Z,77.78
2018-09-06T00:39:33.072Z,78.45
2018-09-06T00:40:33.312Z,78.84
2018-09-06T00:41:33.556Z,78.74
2018-09-06T00:42:33.800Z,79.45
2018-09-06T00:43:34.044Z,80.03
2018-09-06T00:44:34.286Z,80.70
2018-09-06T00:45:34.529Z,81.18
2018-09-06T00:46:34.763Z,81.18
2018-09-06T00:47:35.004Z,80.70
2018-09-06T00:48:35.246Z,80.89
2018-09-06T00:49:35.492Z,80.60
2018-09-06T00:50:35.735Z,80.12
2018-09-06T00:51:35.975Z,80.79
2018-09-06T00:52:36.215Z,80.60
2018-09-06T00:53:36.459Z,80.22
2018-09-06T00:54:36.701Z,80.66
2018-09-06T00:55:36.943Z,79.70
2018-09-06T00:56:37.185Z,79.80
2018-09-06T00:57:37.433Z,79.13
2018-09-06T00:58:37.666Z,78.64
2018-09-06T00:59:37.908Z,78.07
2018-09-06T01:00:38.152Z,78.17
2018-09-06T01:01:38.393Z,78.17
2018-09-06T01:02:38.637Z,77.50
2018-09-06T01:03:38.875Z,77.40
2018-09-06T01:04:39.118Z,78.27
2018-09-06T01:05:39.360Z,78.17
2018-09-06T01:06:39.603Z,78.07
2018-09-06T01:07:39.843Z,78.64
2018-09-06T01:08:40.086Z,78.17
2018-09-06T01:09:40.330Z,78.27
2018-09-06T01:10:40.572Z,78.88
2018-09-06T01:11:40.814Z,78.27
2018-09-06T01:12:41.056Z,78.07
2018-09-06T01:13:41.302Z,78.20
2018-09-06T01:14:41.541Z,78.17
2018-09-06T01:15:41.782Z,77.88
2018-09-06T01:16:42.023Z,78.17
2018-09-06T01:17:42.265Z,77.50
2018-09-06T01:18:42.510Z,77.78
2018-09-06T01:19:42.753Z,77.02
2018-09-06T01:20:42.993Z,76.44
2018-09-06T01:21:43.237Z,75.87
2018-09-06T01:22:43.481Z,76.64
2018-09-06T01:23:43.723Z,76.92
2018-09-06T01:24:43.962Z,76.54
2018-09-06T01:25:44.206Z,76.92
2018-09-06T01:26:44.453Z,77.02
2018-09-06T01:27:44.696Z,77.50
2018-09-06T01:28:44.936Z,77.59
2018-09-06T01:29:45.181Z,77.78
2018-09-06T01:30:45.423Z,77.31
2018-09-06T01:31:45.666Z,77.59
2018-09-06T01:32:45.910Z,78.36
2018-09-06T01:33:46.151Z,77.78
2018-09-06T01:34:46.389Z,77.55
2018-09-06T01:35:46.634Z,77.69
2018-09-06T01:36:46.921Z,77.36
2018-09-06T01:37:47.120Z,75.73
2018-09-06T01:38:47.363Z,76.89
2018-09-06T01:39:47.604Z,75.93
2018-09-06T01:40:47.845Z,75.73
2018-09-06T01:41:48.091Z,75.45
2018-09-06T01:42:48.331Z,75.07
2018-09-06T01:43:48.574Z,74.01
2018-09-06T01:44:48.819Z,74.68
2018-09-06T01:45:49.058Z,75.12
2018-09-06T01:46:49.301Z,73.11
2018-09-06T01:47:49.545Z,72.06
2018-09-06T01:48:49.788Z,71.58
2018-09-06T01:49:50.029Z,72.16
2018-09-06T01:50:50.270Z,71.01
2018-09-06T01:51:50.513Z,71.97
2018-09-06T01:52:50.752Z,71.11
2018-09-06T01:53:50.997Z,70.91
2018-09-06T01:54:51.239Z,70.34
2018-09-06T01:55:51.483Z,69.48
2018-09-06T01:56:51.731Z,69.95
2018-09-06T01:57:51.968Z,69.92
2018-09-06T01:58:52.210Z,70.21
2018-09-06T01:59:52.453Z,69.92
2018-09-06T02:00:52.693Z,69.35
2018-09-06T02:01:52.943Z,67.91
2018-09-06T02:02:53.180Z,66.19
2018-09-06T02:03:53.419Z,69.00
2018-09-06T02:04:53.663Z,69.95
2018-09-06T02:05:53.905Z,71.11
2018-09-06T02:06:54.148Z,71.20
2018-09-06T02:07:54.391Z,71.77
2018-09-06T02:08:54.632Z,71.58
2018-09-06T02:09:54.877Z,72.06
2018-09-06T02:10:55.117Z,73.21
2018-09-06T02:11:55.357Z,72.25
2018-09-06T02:13:03.231Z,69.15
2018-09-06T02:13:55.905Z,66.47
2018-09-06T02:14:56.149Z,65.14
2018-09-06T02:15:56.386Z,64.37
2018-09-06T02:16:56.628Z,64.37
2018-09-06T02:17:56.868Z,64.40
2018-09-06T02:18:57.110Z,64.12
2018-09-06T02:19:57.354Z,65.17
2018-09-06T02:20:57.595Z,66.13
2018-09-06T02:21:57.840Z,66.61
2018-09-06T02:22:58.078Z,67.56
2018-09-06T02:23:58.319Z,68.62
2018-09-06T02:24:58.562Z,69.29
2018-09-06T02:25:58.803Z,69.29
2018-09-06T02:26:59.046Z,69.76
2018-09-06T02:27:59.284Z,68.80
2018-09-06T02:28:59.530Z,67.76
2018-09-06T02:29:59.771Z,67.76
2018-09-06T02:31:00.012Z,67.94
2018-09-06T02:32:00.254Z,67.94
2018-09-06T02:33:00.498Z,67.76
2018-09-06T02:34:00.739Z,67.76
2018-09-06T02:35:00.980Z,67.37
2018-09-06T02:36:01.222Z,66.89
2018-09-06T02:37:01.469Z,66.51
2018-09-06T02:38:01.714Z,67.85
2018-09-06T02:39:01.951Z,68.01
2018-09-06T02:40:02.191Z,67.34
2018-09-06T02:41:02.438Z,67.53
2018-09-06T02:42:02.678Z,66.86
2018-09-06T02:43:02.917Z,66.67
2018-09-06T02:44:03.160Z,65.61
2018-09-06T02:45:03.403Z,65.04
2018-09-06T02:46:03.642Z,64.09
2018-09-06T02:47:03.884Z,63.23
2018-09-06T02:48:04.127Z,61.88
2018-09-06T02:49:04.369Z,61.51
2018-09-06T02:50:04.612Z,59.59
2018-09-06T02:51:04.856Z,58.73
2018-09-06T02:52:05.096Z,58.92
2018-09-06T02:53:05.338Z,58.83
2018-09-06T02:54:05.580Z,59.59
2018-09-06T02:55:05.822Z,59.88
2018-09-06T02:56:06.081Z,59.59
2018-09-06T02:57:06.305Z,58.63
2018-09-06T02:58:06.547Z,59.01
2018-09-06T02:59:06.789Z,59.40
2018-09-06T03:00:07.031Z,59.69
2018-09-06T03:01:07.274Z,60.35
2018-09-06T03:02:07.513Z,60.74
2018-09-06T03:03:07.756Z,62.27
2018-09-06T03:04:08.000Z,62.94
2018-09-06T03:05:08.241Z,63.70
2018-09-06T03:06:08.483Z,65.14
2018-09-06T03:07:08.726Z,65.55
2018-09-06T03:08:08.969Z,65.94
2018-09-06T03:09:09.210Z,66.13
2018-09-06T03:10:09.455Z,66.89
2018-09-06T03:11:09.695Z,66.89
2018-09-06T03:12:09.936Z,66.70
2018-09-06T03:13:10.178Z,66.38
2018-09-06T03:14:10.421Z,65.90
2018-09-06T03:15:10.662Z,65.71
2018-09-06T03:16:10.904Z,66.19
2018-09-06T03:17:11.147Z,66.38
2018-09-06T03:18:11.389Z,66.86
2018-09-06T03:19:11.632Z,66.38
2018-09-06T03:20:11.871Z,66.38
2018-09-06T03:21:12.117Z,66.28
2018-09-06T03:22:12.357Z,65.90
2018-09-06T03:23:12.599Z,64.37
2018-09-06T03:24:12.840Z,63.13
2018-09-06T03:25:13.084Z,62.43
2018-09-06T03:26:13.327Z,61.12
2018-09-06T03:27:13.569Z,60.23
2018-09-06T03:28:13.811Z,59.40
2018-09-06T03:29:14.054Z,58.70
2018-09-06T03:30:14.298Z,58.12
2018-09-06T03:31:14.539Z,57.65
2018-09-06T03:32:14.780Z,58.06
2018-09-06T03:33:15.022Z,58.92
2018-09-06T03:34:15.268Z,59.69
2018-09-06T03:35:15.508Z,60.06
2018-09-06T03:36:15.747Z,60.93
2018-09-06T03:37:15.989Z,60.93
2018-09-06T03:38:16.231Z,61.22
2018-09-06T03:39:16.474Z,60.74
2018-09-06T03:40:16.716Z,60.64
2018-09-06T03:41:16.958Z,60.55
2018-09-06T03:42:17.202Z,60.45
2018-09-06T03:43:17.442Z,60.64
2018-09-06T03:44:17.684Z,61.31
2018-09-06T03:45:17.928Z,60.83
2018-09-06T03:46:18.167Z,61.31
2018-09-06T03:47:18.409Z,61.41
2018-09-06T03:48:18.652Z,61.31
2018-09-06T03:49:18.893Z,61.51
2018-09-06T03:50:19.141Z,61.02
2018-09-06T03:51:19.378Z,60.74
2018-09-06T03:52:19.618Z,60.64
2018-09-06T03:53:19.883Z,61.31
2018-09-06T03:54:20.101Z,60.93
2018-09-06T03:55:20.343Z,60.93
2018-09-06T03:56:20.587Z,60.45
2018-09-06T03:57:20.826Z,59.88
2018-09-06T03:58:21.070Z,60.64
2018-09-06T03:59:21.310Z,60.71
2018-09-06T04:00:21.553Z,60.64
2018-09-06T04:01:21.796Z,60.93
2018-09-06T04:02:22.034Z,60.71
2018-09-06T04:03:22.277Z,60.71
2018-09-06T04:04:22.518Z,60.33
2018-09-06T04:05:22.762Z,58.98
2018-09-06T04:06:22.990Z,57.93
2018-09-06T04:07:23.238Z,57.84
2018-09-06T04:08:23.483Z,57.55
2018-09-06T04:09:23.723Z,56.40
2018-09-06T04:10:23.968Z,56.31
2018-09-06T04:11:24.205Z,57.17
2018-09-06T04:12:24.447Z,56.98
2018-09-06T04:13:24.689Z,56.98
2018-09-06T04:14:24.931Z,57.46
2018-09-06T04:15:25.173Z,57.36
2018-09-06T04:16:25.413Z,57.84
2018-09-06T04:17:25.656Z,57.84
2018-09-06T04:18:25.906Z,57.46
2018-09-06T04:19:26.139Z,57.26
2018-09-06T04:20:26.381Z,57.26
2018-09-06T04:21:34.247Z,56.79
2018-09-06T04:22:26.917Z,57.26
2018-09-06T04:23:27.159Z,57.36
2018-09-06T04:24:27.470Z,57.65
2018-09-06T04:25:27.642Z,56.69
2018-09-06T04:26:27.882Z,56.02
2018-09-06T04:27:28.129Z,55.74
2018-09-06T04:28:28.366Z,55.64
2018-09-06T04:29:28.612Z,55.13
2018-09-06T04:30:28.856Z,54.56
2018-09-06T04:31:29.093Z,54.27
2018-09-06T04:32:29.336Z,53.89
2018-09-06T05:16:46.450Z,57.46
2018-09-06T05:17:46.692Z,57.46
2018-09-06T05:18:46.930Z,58.41
2018-09-06T05:19:47.176Z,57.84
2018-09-06T05:20:47.410Z,57.65
2018-09-06T05:21:47.701Z,57.75
2018-09-06T05:22:47.894Z,57.17
2018-09-06T05:23:48.128Z,56.12
2018-09-06T05:24:48.373Z,56.02
2018-09-06T05:25:48.610Z,56.31
2018-09-06T05:26:48.851Z,57.07
2018-09-06T05:27:49.094Z,57.65
2018-09-06T05:28:49.332Z,57.84
2018-09-06T05:29:49.572Z,58.89
2018-09-06T05:30:49.894Z,58.98
2018-09-06T05:31:50.053Z,59.27
2018-09-06T05:32:50.298Z,60.13
2018-09-06T05:33:50.539Z,60.80
2018-09-06T05:34:50.777Z,61.47
2018-09-06T05:35:51.022Z,61.57
2018-09-06T05:36:51.264Z,62.14
2018-09-06T05:37:51.504Z,62.65
2018-09-06T05:38:51.746Z,63.13
2018-09-06T05:39:51.986Z,63.60
2018-09-06T05:40:52.255Z,63.99
2018-09-06T05:41:52.471Z,63.89
2018-09-06T05:42:52.711Z,64.18
2018-09-06T05:43:52.951Z,63.89
2018-09-06T05:44:53.198Z,64.09
2018-09-06T05:45:53.437Z,65.14
2018-09-06T05:46:53.678Z,65.61
2018-09-06T05:47:53.905Z,66.38
2018-09-06T05:48:54.146Z,65.81
2018-09-06T05:49:54.385Z,66.86
2018-09-06T05:50:54.625Z,67.82
2018-09-06T05:51:54.865Z,68.71
2018-09-06T05:52:55.106Z,70.05
2018-09-06T05:53:55.350Z,70.34
2018-09-06T05:54:55.590Z,71.30
2018-09-06T05:55:55.832Z,72.16
2018-09-06T05:56:56.073Z,73.91
2018-09-06T05:57:56.344Z,75.54
2018-09-06T05:58:56.558Z,75.83
2018-09-06T05:59:56.835Z,76.60
2018-09-06T06:00:57.041Z,76.60
2018-09-06T06:01:57.289Z,76.79
2018-09-06T06:02:57.535Z,77.59
2018-09-06T06:03:57.779Z,78.13
2018-09-06T06:04:58.022Z,77.97
2018-09-06T06:05:58.262Z,77.21
2018-09-06T06:06:58.506Z,77.02
2018-09-06T06:07:58.735Z,77.97
2018-09-06T06:08:58.997Z,77.59
2018-09-06T06:09:59.241Z,77.50
2018-09-06T06:10:59.482Z,77.50
2018-09-06T06:11:59.745Z,78.07
2018-09-06T06:12:59.967Z,78.84
2018-09-06T06:14:00.207Z,78.55
2018-09-06T06:15:00.450Z,80.03
2018-09-06T06:16:00.728Z,80.51
2018-09-06T06:17:00.927Z,82.23
2018-09-06T06:18:01.167Z,84.09
2018-09-06T06:19:01.422Z,87.40
2018-09-06T06:20:01.663Z,89.84
2018-09-06T06:21:01.894Z,92.52
2018-09-06T06:22:02.129Z,94.01
2018-09-06T06:23:02.374Z,94.25
2018-09-06T06:24:02.617Z,93.24
2018-09-06T06:25:02.860Z,92.03
2018-09-06T06:26:03.180Z,90.64
2018-09-06T06:27:03.341Z,89.09
2018-09-06T06:28:03.589Z,88.08
2018-09-06T06:29:03.848Z,87.60
2018-09-06T06:30:04.073Z,86.39
2018-09-06T06:31:04.319Z,85.71
2018-09-06T06:32:04.556Z,83.98
2018-09-06T06:33:12.444Z,83.69
2018-09-06T06:34:05.140Z,83.05
2018-09-06T06:35:05.366Z,82.23
2018-09-06T06:36:05.609Z,81.74
2018-09-06T06:37:05.855Z,80.87
2018-09-06T06:38:06.102Z,80.14
2018-09-06T06:39:06.347Z,78.99
2018-09-06T06:40:06.584Z,78.89
2018-09-06T06:41:06.815Z,77.38
2018-09-06T06:42:07.053Z,77.28
2018-09-06T06:43:07.298Z,76.84
2018-09-06T06:44:07.541Z,76.26
2018-09-06T06:45:07.784Z,75.13
2018-09-06T06:46:08.032Z,74.27
2018-09-06T06:47:08.276Z,74.85
2018-09-06T06:48:08.525Z,74.11
2018-09-06T06:49:08.770Z,73.72
2018-09-06T06:50:09.018Z,73.72
2018-09-06T06:51:09.262Z,73.43
2018-09-06T06:52:09.515Z,73.72
2018-09-06T06:53:09.772Z,73.14
2018-09-06T06:54:10.011Z,72.69
2018-09-06T06:55:10.247Z,71.82
2018-09-06T06:56:10.490Z,70.50
2018-09-06T06:57:10.732Z,69.73
2018-09-06T06:58:10.969Z,68.85
2018-09-06T06:59:11.214Z,68.76
2018-09-06T07:00:11.460Z,68.66
2018-09-06T07:01:11.704Z,69.92
2018-09-06T07:02:11.955Z,69.92
2018-09-06T07:03:12.203Z,69.27
2018-09-06T07:04:12.487Z,68.50
2018-09-06T07:05:12.698Z,67.66
2018-09-06T07:06:12.944Z,66.99
2018-09-06T07:07:13.225Z,67.02
2018-09-06T07:08:13.440Z,66.50
2018-09-06T07:09:13.687Z,67.92
2018-09-06T07:10:13.936Z,67.57
2018-09-06T07:11:14.183Z,66.34
2018-09-06T07:12:14.433Z,65.66
2018-09-06T07:13:14.680Z,65.27
2018-09-06T07:14:14.931Z,64.50
2018-09-06T07:15:15.177Z,64.69
2018-09-06T07:16:15.424Z,66.24
2018-09-06T07:17:15.674Z,67.24
2018-09-06T07:18:15.955Z,66.92
2018-09-06T07:19:16.169Z,67.53
2018-09-06T07:20:16.417Z,66.20
2018-09-06T07:21:16.669Z,64.20
2018-09-06T07:22:16.917Z,62.98
2018-09-06T07:23:17.168Z,61.94
2018-09-06T07:24:17.417Z,62.52
2018-09-06T07:25:17.657Z,62.23
2018-09-06T07:26:17.908Z,61.38
2018-09-06T07:27:18.149Z,59.67
2018-09-06T07:28:18.397Z,58.82
2018-09-06T07:29:18.654Z,57.59
2018-09-06T07:30:18.887Z,56.12
2018-09-06T07:31:19.135Z,56.35
2018-09-06T07:32:19.384Z,55.47
2018-09-06T07:33:19.642Z,55.86
2018-09-06T07:34:19.877Z,55.50
2018-09-06T07:35:20.206Z,55.83
2018-09-06T07:36:20.369Z,57.10
2018-09-06T07:37:20.634Z,55.96
2018-09-06T07:38:20.850Z,55.57
2018-09-06T07:39:21.104Z,56.74
2018-09-06T07:40:21.347Z,55.40
2018-09-06T07:41:21.634Z,54.91
2018-09-06T07:42:21.849Z,54.46
2018-09-06T07:43:22.099Z,53.97
2018-09-06T07:44:22.359Z,55.01
2018-09-06T07:45:22.678Z,54.89
2018-09-06T07:46:22.890Z,56.32
2018-09-06T07:47:23.132Z,56.49
2018-09-06T07:48:23.383Z,57.95
2018-09-06T07:49:23.643Z,56.64
2018-09-06T07:50:23.885Z,56.45
2018-09-06T07:51:24.134Z,55.96
2018-09-06T07:52:24.470Z,54.52
2018-09-06T07:53:24.630Z,54.06
2018-09-06T07:54:24.897Z,54.65
2018-09-06T07:55:25.159Z,52.73
2018-09-06T07:56:25.397Z,51.39
2018-09-06T07:57:25.649Z,51.61
2018-09-06T07:58:25.907Z,51.02
2018-09-06T07:59:26.156Z,52.36
2018-09-06T08:00:26.408Z,51.21
2018-09-06T08:01:26.718Z,50.53
2018-09-06T08:02:26.909Z,51.09
2018-09-06T08:03:27.165Z,50.82
2018-09-06T08:04:27.415Z,50.99
2018-09-06T08:05:27.667Z,50.95
2018-09-06T08:06:27.929Z,50.26
2018-09-06T08:07:28.171Z,50.36
2018-09-06T08:08:28.424Z,50.78
2018-09-06T08:09:28.675Z,52.50
2018-09-06T08:10:28.930Z,54.55
2018-09-06T08:11:29.182Z,52.85
2018-09-06T08:12:29.433Z,51.43
2018-09-06T08:13:29.685Z,50.85
2018-09-06T08:14:29.939Z,50.10
2018-09-06T08:15:30.192Z,49.80
2018-09-06T08:16:30.444Z,49.41
2018-09-06T08:17:30.698Z,48.94
2018-09-06T08:18:30.946Z,48.36
2018-09-06T08:19:31.204Z,49.07
2018-09-06T08:20:31.455Z,48.87
2018-09-06T08:21:31.706Z,47.43
2018-09-06T08:22:31.958Z,47.16
2018-09-06T08:23:32.211Z,46.30
2018-09-06T08:24:32.465Z,46.11
2018-09-06T08:25:32.723Z,45.25
2018-09-06T08:26:32.975Z,44.38
2018-09-06T08:27:33.230Z,43.74
2018-09-06T08:28:33.491Z,43.74
2018-09-06T08:29:33.738Z,42.74
2018-09-06T08:30:34.061Z,43.58
2018-09-06T08:31:34.251Z,44.21
2018-09-06T08:32:34.505Z,43.90
2018-09-06T08:33:34.759Z,43.72
2018-09-06T08:34:35.011Z,44.21
2018-09-06T08:35:35.264Z,42.91
2018-09-06T08:36:35.520Z,42.84
2018-09-06T08:37:35.767Z,45.94
2018-09-06T08:38:36.025Z,46.65
2018-09-06T08:39:36.281Z,46.28
2018-09-06T08:40:36.532Z,45.81
2018-09-06T08:41:36.795Z,45.25
2018-09-06T08:42:37.040Z,47.27
2018-09-06T08:43:37.312Z,48.73
2018-09-06T08:46:09.638Z,45.91
2018-09-06T08:47:09.893Z,45.34
2018-09-06T08:48:10.148Z,44.98
2018-09-06T08:49:10.402Z,44.44
2018-09-06T08:50:10.655Z,45.79
2018-09-06T08:51:10.909Z,46.47
2018-09-06T08:52:11.251Z,45.89
2018-09-06T08:53:11.417Z,47.99
2018-09-06T08:54:11.671Z,48.73
2018-09-06T08:55:11.926Z,48.04
2018-09-06T08:56:12.179Z,45.25
2018-09-06T08:57:12.433Z,45.05
2018-09-06T08:58:12.687Z,45.25
2018-09-06T08:59:12.941Z,44.48
2018-09-06T09:00:13.199Z,44.56
2018-09-06T09:01:13.454Z,46.72
2018-09-06T09:02:13.814Z,47.53
2018-09-06T09:03:13.976Z,49.17
2018-09-06T09:04:14.215Z,50.90
2018-09-06T09:05:14.470Z,52.50
2018-09-06T09:06:14.724Z,52.44
2018-09-06T09:07:14.978Z,50.59
2018-09-06T09:08:15.240Z,48.60
2018-09-06T09:09:15.488Z,46.47
2018-09-06T09:10:15.742Z,45.93
2018-09-06T09:11:15.997Z,43.94
2018-09-06T09:12:16.251Z,42.71
2018-09-06T09:13:16.548Z,42.53
2018-09-06T09:14:16.759Z,41.49
2018-09-06T09:15:17.017Z,44.23
2018-09-06T09:16:17.365Z,46.28
2018-09-06T09:17:17.526Z,45.20
2018-09-06T09:18:17.814Z,47.14
2018-09-06T09:19:18.035Z,45.25
2018-09-06T09:20:18.291Z,44.58
2018-09-06T09:21:18.545Z,43.45
2018-09-06T09:22:18.825Z,42.27
2018-09-06T09:23:19.057Z,42.84
2018-09-06T09:24:19.311Z,42.94
2018-09-06T09:25:19.580Z,44.15
2018-09-06T09:26:19.820Z,46.43
2018-09-06T09:27:20.075Z,46.33
2018-09-06T09:28:20.329Z,47.56
2018-09-06T09:29:20.590Z,48.24
2018-09-06T09:30:20.842Z,48.36
2018-09-06T09:31:21.097Z,50.80
2018-09-06T09:32:21.353Z,53.06
2018-09-06T09:33:21.609Z,52.17
2018-09-06T09:34:21.870Z,51.97
2018-09-06T09:35:22.125Z,50.59
2018-09-06T09:36:22.383Z,48.87
2018-09-06T09:37:22.629Z,48.80
2018-09-06T09:38:22.882Z,48.88
2018-09-06T09:39:23.138Z,50.46
2018-09-06T09:40:23.391Z,48.38
2018-09-06T09:41:23.649Z,48.73
2018-09-06T09:42:23.915Z,47.24
2018-09-06T09:43:24.216Z,44.19
2018-09-06T09:44:24.407Z,42.74
2018-09-06T09:45:24.661Z,42.39
2018-09-06T09:47:56.507Z,40.98
2018-09-06T09:48:56.764Z,41.09
2018-09-06T09:49:57.019Z,40.13
2018-09-06T09:50:57.275Z,38.70
2018-09-06T09:51:57.537Z,37.24
2018-09-06T09:52:57.787Z,41.17
2018-09-06T09:53:58.046Z,43.99
2018-09-06T09:54:58.295Z,42.99
2018-09-06T09:55:58.551Z,44.91
2018-09-06T09:56:58.848Z,47.41
2018-09-06T09:57:59.049Z,46.70
2018-09-06T09:58:59.328Z,48.12
2018-09-06T09:59:59.584Z,49.12
2018-09-06T10:00:59.838Z,47.63
2018-09-06T10:02:00.093Z,44.95
2018-09-06T10:03:00.348Z,43.31
2018-09-06T10:04:00.605Z,43.43
2018-09-06T10:05:00.877Z,43.76
2018-09-06T10:06:01.116Z,44.15
2018-09-06T10:07:01.372Z,42.84
2018-09-06T10:08:01.628Z,41.63
2018-09-06T10:09:01.883Z,41.06
2018-09-06T10:10:02.139Z,40.29
2018-09-06T10:11:02.396Z,39.15
2018-09-06T10:12:02.653Z,37.30
2018-09-06T10:13:02.905Z,37.32
2018-09-06T10:14:03.161Z,37.26
2018-09-06T10:15:03.427Z,41.74
2018-09-06T10:16:03.672Z,41.41
2018-09-06T10:17:03.932Z,40.48
2018-09-06T10:18:04.244Z,38.93
2018-09-06T10:19:04.450Z,39.54
2018-09-06T10:20:04.699Z,40.39
2018-09-06T10:21:04.956Z,39.74
2018-09-06T10:22:05.216Z,38.60
2018-09-06T10:23:05.481Z,38.05
2018-09-06T10:24:05.758Z,38.66
2018-09-06T10:25:06.009Z,35.87
2018-09-06T10:26:06.270Z,36.65
2018-09-06T10:27:06.527Z,37.13
2018-09-06T10:28:06.784Z,37.15
2018-09-06T10:29:07.043Z,37.72
2018-09-06T10:30:07.296Z,37.99
2018-09-06T10:31:07.553Z,38.39
2018-09-06T10:32:07.810Z,37.23
2018-09-06T10:33:08.067Z,36.10
2018-09-06T10:34:08.320Z,36.00
2018-09-06T10:35:08.579Z,36.00
2018-09-06T10:36:08.830Z,35.71
2018-09-06T10:37:09.095Z,35.69
2018-09-06T10:38:09.354Z,35.59
2018-09-06T10:39:09.632Z,35.87
2018-09-06T10:40:09.845Z,38.19
2018-09-06T10:41:10.103Z,38.58
2018-09-06T10:42:10.358Z,39.53
2018-09-06T10:43:10.614Z,40.64
2018-09-06T10:44:10.867Z,40.33
2018-09-06T10:45:11.120Z,41.91
2018-09-06T10:46:11.377Z,44.78
2018-09-06T10:47:11.635Z,45.56
2018-09-06T10:48:11.894Z,46.53
2018-09-06T10:49:12.146Z,46.34
2018-09-06T10:50:12.401Z,45.19
2018-09-06T10:51:12.667Z,44.90
2018-09-06T10:52:12.910Z,46.24
2018-09-06T10:53:13.165Z,45.92
2018-09-06T10:54:13.425Z,46.63
2018-09-06T10:55:13.668Z,46.00
2018-09-06T10:56:13.922Z,46.49
2018-09-06T10:57:21.821Z,46.10
2018-09-06T10:58:14.514Z,46.49
2018-09-06T10:59:14.762Z,47.05
2018-09-06T11:00:15.016Z,46.97
2018-09-06T11:01:15.266Z,47.44
2018-09-06T11:02:15.519Z,48.00
2018-09-06T11:03:15.777Z,48.88
2018-09-06T11:04:16.020Z,49.07
2018-09-06T11:05:16.266Z,49.34
2018-09-06T11:06:16.518Z,49.99
2018-09-06T11:07:16.763Z,50.31
2018-09-06T11:08:17.067Z,50.68
2018-09-06T11:09:17.255Z,50.09
2018-09-06T11:10:17.494Z,50.78
2018-09-06T11:11:17.742Z,50.97
2018-09-06T11:12:17.993Z,50.87
2018-09-06T11:13:18.246Z,50.95
2018-09-06T11:14:18.486Z,51.53
2018-09-06T11:15:18.753Z,51.92
2018-09-06T11:16:19.008Z,51.62
2018-09-06T11:17:19.245Z,52.31
2018-09-06T11:18:19.503Z,52.01
2018-09-06T11:19:19.742Z,52.21
2018-09-06T11:20:20.012Z,52.21
2018-09-06T11:21:20.349Z,51.55
2018-09-06T11:22:20.652Z,52.04
2018-09-06T11:23:20.760Z,51.23
2018-09-06T11:24:21.012Z,50.87
2018-09-06T11:25:21.248Z,52.09
2018-09-06T11:26:21.485Z,52.86
2018-09-06T11:27:21.788Z,54.00
2018-09-06T11:28:21.982Z,55.82
2018-09-06T11:29:22.234Z,58.39
2018-09-06T11:30:22.476Z,59.61
2018-09-06T11:31:22.730Z,60.30
2018-09-06T11:32:22.972Z,60.36
2018-09-06T11:33:23.286Z,61.33
2018-09-06T11:34:23.464Z,61.98
2018-09-06T11:35:23.712Z,62.46
2018-09-06T11:36:23.953Z,63.89
2018-09-06T11:37:24.206Z,64.66
2018-09-06T11:38:24.445Z,71.46
2018-09-06T11:39:24.706Z,76.93
2018-09-06T11:40:24.964Z,78.73
2018-09-06T11:41:25.200Z,78.83
2018-09-06T11:42:25.451Z,80.86
2018-09-06T11:43:25.708Z,82.26
2018-09-06T11:44:25.940Z,83.96
2018-09-06T11:45:26.212Z,86.28
2018-09-06T11:46:26.454Z,82.26
2018-09-06T11:47:26.833Z,81.98
2018-09-06T11:48:26.921Z,81.20
2018-09-06T11:49:27.187Z,82.46
2018-09-06T11:50:27.410Z,84.48
2018-09-06T11:51:27.652Z,84.39
2018-09-06T11:52:27.903Z,82.31
2018-09-06T11:53:28.144Z,80.28
2018-09-06T11:54:28.387Z,78.33
2018-09-06T11:55:28.636Z,76.04
2018-09-06T11:56:28.865Z,77.11
2018-09-06T11:57:29.130Z,77.11
2018-09-06T11:58:29.358Z,78.81
2018-09-06T11:59:29.609Z,79.54
2018-09-06T12:00:29.850Z,78.87
2018-09-06T12:01:30.123Z,79.12
2018-09-06T12:02:30.339Z,81.53
2018-09-06T12:03:30.584Z,82.79
2018-09-06T12:04:30.831Z,81.24
2018-09-06T12:05:31.104Z,78.96
2018-09-06T12:06:31.317Z,77.36
2018-09-06T12:07:31.565Z,77.07
2018-09-06T12:08:31.802Z,76.53
2018-09-06T12:09:32.055Z,75.11
2018-09-06T12:10:32.305Z,73.57
2018-09-06T12:11:32.521Z,72.63
2018-09-06T12:12:32.851Z,71.95
2018-09-06T12:13:33.105Z,70.98
2018-09-06T12:14:33.339Z,70.50
2018-09-06T12:15:33.585Z,69.76
2018-09-06T12:16:33.827Z,70.63
2018-09-06T12:17:34.071Z,71.80
2018-09-06T12:18:34.318Z,73.64
2018-09-06T12:19:34.647Z,73.25
2018-09-06T12:20:34.815Z,73.25
2018-09-06T12:21:35.063Z,72.96
2018-09-06T12:22:35.309Z,71.99
2018-09-06T12:23:35.557Z,72.09
2018-09-06T12:24:35.806Z,72.73
2018-09-06T12:25:36.096Z,71.86
2018-09-06T12:26:36.298Z,71.72
2018-09-06T12:27:36.545Z,72.66
2018-09-06T12:28:36.793Z,72.66
2018-09-06T12:29:37.047Z,72.85
2018-09-06T12:30:37.289Z,72.08
2018-09-06T12:31:37.536Z,72.36
2018-09-06T12:32:37.784Z,71.78
2018-09-06T12:33:38.112Z,72.04
2018-09-06T12:34:38.280Z,73.10
2018-09-06T12:35:38.527Z,74.55
2018-09-06T12:36:38.774Z,74.85
2018-09-06T12:37:39.024Z,73.97
2018-09-06T12:38:39.321Z,74.46
2018-09-06T12:39:39.519Z,74.42
2018-09-06T12:40:39.767Z,74.17
2018-09-06T12:41:40.016Z,73.97
2018-09-06T12:42:40.264Z,73.78
2018-09-06T12:43:40.512Z,73.59
2018-09-06T12:44:40.759Z,72.91
2018-09-06T12:45:41.008Z,73.30
2018-09-06T12:46:41.251Z,74.04
2018-09-06T12:47:41.510Z,74.04
2018-09-06T12:48:41.756Z,74.23
2018-09-06T12:49:42.072Z,75.35
2018-09-06T12:50:42.253Z,76.51
2018-09-06T12:51:42.502Z,75.93
2018-09-06T12:52:42.752Z,77.28
2018-09-06T12:53:43.000Z,77.38
2018-09-06T12:54:43.248Z,78.73
2018-09-06T12:55:43.494Z,78.59
2018-09-06T12:56:43.767Z,80.72
2018-09-06T12:57:43.991Z,81.40
2018-09-06T12:58:44.239Z,82.23
2018-09-06T12:59:44.486Z,82.32
2018-09-06T13:00:44.737Z,82.13
2018-09-06T13:01:44.984Z,82.03
2018-09-06T13:02:45.233Z,82.03
2018-09-06T13:03:45.482Z,81.16
2018-09-06T13:04:52.849Z,81.07
2018-09-06T13:05:53.600Z,80.97
2018-09-06T13:06:46.282Z,81.01
2018-09-06T13:07:46.527Z,81.40
2018-09-06T13:08:46.774Z,81.40
2018-09-06T13:09:47.024Z,81.88
2018-09-06T13:10:47.269Z,81.20
2018-09-06T13:11:47.519Z,80.72
2018-09-06T13:12:47.768Z,80.62
2018-09-06T13:13:48.029Z,79.75
2018-09-06T13:14:48.271Z,80.14
2018-09-06T13:15:48.521Z,79.75
2018-09-06T13:16:48.769Z,80.05
2018-09-06T13:17:49.015Z,81.11
2018-09-06T13:18:49.300Z,81.11
2018-09-06T13:19:49.511Z,82.07
2018-09-06T13:20:49.759Z,82.56
2018-09-06T13:21:50.007Z,82.17
2018-09-06T13:22:50.257Z,83.33
2018-09-06T13:23:50.502Z,83.72
2018-09-06T13:24:50.743Z,83.42
2018-09-06T13:25:50.990Z,83.67
2018-09-06T13:26:51.239Z,84.25
2018-09-06T13:27:51.486Z,84.16
2018-09-06T13:28:51.733Z,84.83
2018-09-06T13:29:51.982Z,84.83
2018-09-06T13:30:52.238Z,85.31
2018-09-06T13:31:52.499Z,85.17
2018-09-06T13:32:52.729Z,85.08
2018-09-06T13:33:52.966Z,85.56
2018-09-06T13:34:53.206Z,85.46
2018-09-06T13:35:53.455Z,85.85
2018-09-06T13:36:53.701Z,85.75
2018-09-06T13:37:53.948Z,85.81
2018-09-06T13:38:54.205Z,86.39
2018-09-06T13:39:54.461Z,85.71
2018-09-06T13:40:54.671Z,86.48
2018-09-06T13:41:54.917Z,85.91